sensor_id;sensor_type;location;lat;lon;timestamp;temperature;humidity
73360;DHT22;63092;43.582;19.528;2024-02-21T00:01:39;7.60;99.90
73360;DHT22;63092;43.582;19.528;2024-02-21T00:04:05;7.50;99.90
73360;DHT22;63092;43.582;19.528;2024-02-21T00:06:31;7.50;99.90
73360;DHT22;63092;43.582;19.528;2024-02-21T00:08:58;7.60;99.90
73360;DHT22;63092;43.582;19.528;2024-02-21T00:11:23;7.60;99.90
73360;DHT22;63092;43.582;19.528;2024-02-21T00:13:49;7.60;99.90
73360;DHT22;63092;43.582;19.528;2024-02-21T00:16:16;7.50;99.90
73360;DHT22;63092;43.582;19.528;2024-02-21T00:18:43;7.60;99.90
73360;DHT22;63092;43.582;19.528;2024-02-21T00:21:08;7.60;99.90
73360;DHT22;63092;43.582;19.528;2024-02-21T00:23:34;7.60;99.90
73360;DHT22;63092;43.582;19.528;2024-02-21T00:26:00;7.50;99.90
73360;DHT22;63092;43.582;19.528;2024-02-21T00:28:25;7.50;99.90
73360;DHT22;63092;43.582;19.528;2024-02-21T00:30:51;7.50;99.90
73360;DHT22;63092;43.582;19.528;2024-02-21T00:33:19;7.50;99.90
73360;DHT22;63092;43.582;19.528;2024-02-21T00:35:45;7.50;99.90
73360;DHT22;63092;43.582;19.528;2024-02-21T00:38:10;7.50;99.90
73360;DHT22;63092;43.582;19.528;2024-02-21T00:40:36;7.60;99.90
73360;DHT22;63092;43.582;19.528;2024-02-21T00:43:02;7.60;99.90
73360;DHT22;63092;43.582;19.528;2024-02-21T00:45:28;7.60;99.90
73360;DHT22;63092;43.582;19.528;2024-02-21T00:47:54;7.60;99.90
73360;DHT22;63092;43.582;19.528;2024-02-21T00:50:19;7.60;99.90
73360;DHT22;63092;43.582;19.528;2024-02-21T00:52:45;7.40;99.90
73360;DHT22;63092;43.582;19.528;2024-02-21T00:55:11;7.30;99.90
73360;DHT22;63092;43.582;19.528;2024-02-21T00:57:37;7.30;99.90
73360;DHT22;63092;43.582;19.528;2024-02-21T01:00:03;7.30;99.90
73360;DHT22;63092;43.582;19.528;2024-02-21T01:02:29;7.30;99.90
73360;DHT22;63092;43.582;19.528;2024-02-21T01:04:58;7.40;99.90
73360;DHT22;63092;43.582;19.528;2024-02-21T01:07:24;7.50;99.90
73360;DHT22;63092;43.582;19.528;2024-02-21T01:09:50;7.40;99.90
73360;DHT22;63092;43.582;19.528;2024-02-21T01:12:18;7.50;99.90
73360;DHT22;63092;43.582;19.528;2024-02-21T01:14:44;7.40;99.90
73360;DHT22;63092;43.582;19.528;2024-02-21T01:17:12;7.30;99.90
73360;DHT22;63092;43.582;19.528;2024-02-21T01:19:37;7.30;99.90
73360;DHT22;63092;43.582;19.528;2024-02-21T01:22:04;7.10;99.90
73360;DHT22;63092;43.582;19.528;2024-02-21T01:24:29;7.00;99.90
73360;DHT22;63092;43.582;19.528;2024-02-21T01:26:55;7.10;99.90
73360;DHT22;63092;43.582;19.528;2024-02-21T01:29:21;7.20;99.90
73360;DHT22;63092;43.582;19.528;2024-02-21T01:31:47;7.30;99.90
73360;DHT22;63092;43.582;19.528;2024-02-21T01:34:13;7.30;99.90
73360;DHT22;63092;43.582;19.528;2024-02-21T01:36:39;7.40;99.90
73360;DHT22;63092;43.582;19.528;2024-02-21T01:39:04;7.30;99.90
73360;DHT22;63092;43.582;19.528;2024-02-21T01:41:30;7.10;99.90
73360;DHT22;63092;43.582;19.528;2024-02-21T01:43:57;7.10;99.90
73360;DHT22;63092;43.582;19.528;2024-02-21T01:46:23;7.20;99.90
73360;DHT22;63092;43.582;19.528;2024-02-21T01:48:54;7.30;99.90
73360;DHT22;63092;43.582;19.528;2024-02-21T01:51:19;7.30;99.90
73360;DHT22;63092;43.582;19.528;2024-02-21T01:53:46;7.20;99.90
73360;DHT22;63092;43.582;19.528;2024-02-21T01:56:13;7.00;99.90
73360;DHT22;63092;43.582;19.528;2024-02-21T01:58:40;6.90;99.90
73360;DHT22;63092;43.582;19.528;2024-02-21T02:01:07;6.80;99.90
73360;DHT22;63092;43.582;19.528;2024-02-21T02:03:33;6.90;99.90
73360;DHT22;63092;43.582;19.528;2024-02-21T02:05:59;7.00;99.90
73360;DHT22;63092;43.582;19.528;2024-02-21T02:08:25;7.10;99.90
73360;DHT22;63092;43.582;19.528;2024-02-21T02:10:51;7.10;99.90
73360;DHT22;63092;43.582;19.528;2024-02-21T02:13:17;7.00;99.90
73360;DHT22;63092;43.582;19.528;2024-02-21T02:15:48;6.90;99.90
73360;DHT22;63092;43.582;19.528;2024-02-21T02:18:15;6.80;99.90
73360;DHT22;63092;43.582;19.528;2024-02-21T02:20:41;6.70;99.90
73360;DHT22;63092;43.582;19.528;2024-02-21T02:25:37;6.80;99.90
73360;DHT22;63092;43.582;19.528;2024-02-21T02:28:05;6.90;99.90
73360;DHT22;63092;43.582;19.528;2024-02-21T02:30:35;7.00;99.90
73360;DHT22;63092;43.582;19.528;2024-02-21T02:33:05;7.10;99.90
73360;DHT22;63092;43.582;19.528;2024-02-21T02:35:31;7.20;99.90
73360;DHT22;63092;43.582;19.528;2024-02-21T02:37:57;7.30;99.90
73360;DHT22;63092;43.582;19.528;2024-02-21T02:40:23;7.20;99.90
73360;DHT22;63092;43.582;19.528;2024-02-21T02:42:49;7.20;99.90
73360;DHT22;63092;43.582;19.528;2024-02-21T02:45:15;7.00;99.90
73360;DHT22;63092;43.582;19.528;2024-02-21T02:47:41;6.80;99.90
73360;DHT22;63092;43.582;19.528;2024-02-21T02:50:07;6.80;99.90
73360;DHT22;63092;43.582;19.528;2024-02-21T02:52:33;6.90;99.90
73360;DHT22;63092;43.582;19.528;2024-02-21T02:54:59;7.00;99.90
73360;DHT22;63092;43.582;19.528;2024-02-21T02:57:25;7.10;99.90
73360;DHT22;63092;43.582;19.528;2024-02-21T02:59:51;7.10;99.90
73360;DHT22;63092;43.582;19.528;2024-02-21T03:02:17;7.20;99.90
73360;DHT22;63092;43.582;19.528;2024-02-21T03:04:44;7.10;99.90
73360;DHT22;63092;43.582;19.528;2024-02-21T03:07:10;7.10;99.90
73360;DHT22;63092;43.582;19.528;2024-02-21T03:09:37;7.00;99.90
73360;DHT22;63092;43.582;19.528;2024-02-21T03:12:04;6.90;99.90
73360;DHT22;63092;43.582;19.528;2024-02-21T03:14:30;6.90;99.90
73360;DHT22;63092;43.582;19.528;2024-02-21T03:16:59;7.00;99.90
73360;DHT22;63092;43.582;19.528;2024-02-21T03:19:25;7.10;99.90
73360;DHT22;63092;43.582;19.528;2024-02-21T03:21:51;7.00;99.90
73360;DHT22;63092;43.582;19.528;2024-02-21T03:24:18;7.10;99.90
73360;DHT22;63092;43.582;19.528;2024-02-21T03:26:45;7.10;99.90
73360;DHT22;63092;43.582;19.528;2024-02-21T03:29:14;7.10;99.90
73360;DHT22;63092;43.582;19.528;2024-02-21T03:31:39;7.20;99.90
73360;DHT22;63092;43.582;19.528;2024-02-21T03:34:05;7.10;99.90
73360;DHT22;63092;43.582;19.528;2024-02-21T03:36:31;7.10;99.90
73360;DHT22;63092;43.582;19.528;2024-02-21T03:38:57;7.20;99.90
73360;DHT22;63092;43.582;19.528;2024-02-21T03:41:23;7.20;99.90
73360;DHT22;63092;43.582;19.528;2024-02-21T03:43:50;7.20;99.90
73360;DHT22;63092;43.582;19.528;2024-02-21T03:46:15;7.20;99.90
73360;DHT22;63092;43.582;19.528;2024-02-21T03:48:41;7.20;99.90
73360;DHT22;63092;43.582;19.528;2024-02-21T03:51:07;7.30;99.90
73360;DHT22;63092;43.582;19.528;2024-02-21T03:53:33;7.20;99.90
73360;DHT22;63092;43.582;19.528;2024-02-21T03:56:01;7.20;99.90
73360;DHT22;63092;43.582;19.528;2024-02-21T03:58:32;7.20;99.90
73360;DHT22;63092;43.582;19.528;2024-02-21T04:01:00;7.10;99.90
73360;DHT22;63092;43.582;19.528;2024-02-21T04:03:27;7.20;99.90
73360;DHT22;63092;43.582;19.528;2024-02-21T04:05:53;7.20;99.90
73360;DHT22;63092;43.582;19.528;2024-02-21T04:08:18;7.20;99.90
73360;DHT22;63092;43.582;19.528;2024-02-21T04:10:44;7.20;99.90
73360;DHT22;63092;43.582;19.528;2024-02-21T04:13:10;7.20;99.90
73360;DHT22;63092;43.582;19.528;2024-02-21T04:15:36;7.20;99.90
73360;DHT22;63092;43.582;19.528;2024-02-21T04:18:02;7.20;99.90
73360;DHT22;63092;43.582;19.528;2024-02-21T04:20:29;7.10;99.90
73360;DHT22;63092;43.582;19.528;2024-02-21T04:22:55;6.90;99.90
73360;DHT22;63092;43.582;19.528;2024-02-21T04:25:21;6.90;99.90
73360;DHT22;63092;43.582;19.528;2024-02-21T04:27:47;6.80;99.90
73360;DHT22;63092;43.582;19.528;2024-02-21T04:30:12;6.70;99.90
73360;DHT22;63092;43.582;19.528;2024-02-21T04:32:39;6.70;99.90
73360;DHT22;63092;43.582;19.528;2024-02-21T04:35:05;6.70;99.90
73360;DHT22;63092;43.582;19.528;2024-02-21T04:37:30;6.80;99.90
73360;DHT22;63092;43.582;19.528;2024-02-21T04:39:56;6.90;99.90
73360;DHT22;63092;43.582;19.528;2024-02-21T04:42:22;6.80;99.90
73360;DHT22;63092;43.582;19.528;2024-02-21T04:44:48;6.80;99.90
73360;DHT22;63092;43.582;19.528;2024-02-21T04:47:14;6.90;99.90
73360;DHT22;63092;43.582;19.528;2024-02-21T04:49:39;7.00;99.90
73360;DHT22;63092;43.582;19.528;2024-02-21T04:52:05;6.80;99.90
73360;DHT22;63092;43.582;19.528;2024-02-21T04:54:31;6.80;99.90
73360;DHT22;63092;43.582;19.528;2024-02-21T04:56:57;6.90;99.90
73360;DHT22;63092;43.582;19.528;2024-02-21T04:59:22;6.80;99.90
73360;DHT22;63092;43.582;19.528;2024-02-21T05:01:48;6.80;99.90
73360;DHT22;63092;43.582;19.528;2024-02-21T05:04:14;6.60;99.90
73360;DHT22;63092;43.582;19.528;2024-02-21T05:06:41;6.70;99.90
73360;DHT22;63092;43.582;19.528;2024-02-21T05:09:08;6.80;99.90
73360;DHT22;63092;43.582;19.528;2024-02-21T05:11:35;6.80;99.90
73360;DHT22;63092;43.582;19.528;2024-02-21T05:14:00;6.90;99.90
73360;DHT22;63092;43.582;19.528;2024-02-21T05:16:26;7.00;99.90
73360;DHT22;63092;43.582;19.528;2024-02-21T05:18:52;7.10;99.90
73360;DHT22;63092;43.582;19.528;2024-02-21T05:21:17;7.20;99.90
73360;DHT22;63092;43.582;19.528;2024-02-21T05:23:43;7.20;99.90
73360;DHT22;63092;43.582;19.528;2024-02-21T05:26:09;7.30;99.90
73360;DHT22;63092;43.582;19.528;2024-02-21T05:28:35;7.30;99.90
73360;DHT22;63092;43.582;19.528;2024-02-21T05:31:00;7.30;99.90
73360;DHT22;63092;43.582;19.528;2024-02-21T05:33:26;7.20;99.90
73360;DHT22;63092;43.582;19.528;2024-02-21T05:35:52;7.30;99.90
73360;DHT22;63092;43.582;19.528;2024-02-21T05:38:18;7.20;99.90
73360;DHT22;63092;43.582;19.528;2024-02-21T05:40:47;7.30;99.90
73360;DHT22;63092;43.582;19.528;2024-02-21T05:43:13;7.30;99.90
73360;DHT22;63092;43.582;19.528;2024-02-21T05:45:39;7.20;99.90
73360;DHT22;63092;43.582;19.528;2024-02-21T05:48:05;7.20;99.90
73360;DHT22;63092;43.582;19.528;2024-02-21T05:50:31;7.10;99.90
73360;DHT22;63092;43.582;19.528;2024-02-21T05:52:58;7.10;99.90
73360;DHT22;63092;43.582;19.528;2024-02-21T05:55:23;7.10;99.90
73360;DHT22;63092;43.582;19.528;2024-02-21T05:57:49;7.10;99.90
73360;DHT22;63092;43.582;19.528;2024-02-21T06:00:15;7.00;99.90
73360;DHT22;63092;43.582;19.528;2024-02-21T06:02:41;7.00;99.90
73360;DHT22;63092;43.582;19.528;2024-02-21T06:05:08;7.00;99.90
73360;DHT22;63092;43.582;19.528;2024-02-21T06:07:34;7.00;99.90
73360;DHT22;63092;43.582;19.528;2024-02-21T06:10:02;7.00;99.90
73360;DHT22;63092;43.582;19.528;2024-02-21T06:12:27;7.00;99.90
73360;DHT22;63092;43.582;19.528;2024-02-21T06:14:53;6.90;99.90
73360;DHT22;63092;43.582;19.528;2024-02-21T06:17:19;6.70;99.90
73360;DHT22;63092;43.582;19.528;2024-02-21T06:19:44;6.60;99.90
73360;DHT22;63092;43.582;19.528;2024-02-21T06:22:11;6.70;99.90
73360;DHT22;63092;43.582;19.528;2024-02-21T06:24:37;6.80;99.90
73360;DHT22;63092;43.582;19.528;2024-02-21T06:27:05;6.90;99.90
73360;DHT22;63092;43.582;19.528;2024-02-21T06:29:34;7.00;99.90
73360;DHT22;63092;43.582;19.528;2024-02-21T06:32:01;7.00;99.90
73360;DHT22;63092;43.582;19.528;2024-02-21T06:34:27;7.10;99.90
73360;DHT22;63092;43.582;19.528;2024-02-21T06:36:53;7.20;99.90
73360;DHT22;63092;43.582;19.528;2024-02-21T06:39:19;7.10;99.90
73360;DHT22;63092;43.582;19.528;2024-02-21T06:41:44;7.20;99.90
73360;DHT22;63092;43.582;19.528;2024-02-21T06:44:10;7.20;99.90
73360;DHT22;63092;43.582;19.528;2024-02-21T06:46:36;7.20;99.90
73360;DHT22;63092;43.582;19.528;2024-02-21T06:49:02;7.30;99.90
73360;DHT22;63092;43.582;19.528;2024-02-21T06:51:30;7.40;99.90
73360;DHT22;63092;43.582;19.528;2024-02-21T06:53:57;7.40;99.90
73360;DHT22;63092;43.582;19.528;2024-02-21T06:56:24;7.40;99.90
73360;DHT22;63092;43.582;19.528;2024-02-21T06:58:55;7.40;99.90
73360;DHT22;63092;43.582;19.528;2024-02-21T07:01:21;7.40;99.90
73360;DHT22;63092;43.582;19.528;2024-02-21T07:03:46;7.50;99.90
73360;DHT22;63092;43.582;19.528;2024-02-21T07:06:12;7.50;99.90
73360;DHT22;63092;43.582;19.528;2024-02-21T07:08:38;7.50;99.90
73360;DHT22;63092;43.582;19.528;2024-02-21T07:11:05;7.40;99.90
73360;DHT22;63092;43.582;19.528;2024-02-21T07:13:31;7.30;99.90
73360;DHT22;63092;43.582;19.528;2024-02-21T07:15:57;7.40;99.90
73360;DHT22;63092;43.582;19.528;2024-02-21T07:18:23;7.40;99.90
73360;DHT22;63092;43.582;19.528;2024-02-21T07:20:51;7.40;99.90
73360;DHT22;63092;43.582;19.528;2024-02-21T07:23:17;7.30;99.90
73360;DHT22;63092;43.582;19.528;2024-02-21T07:25:42;7.40;99.90
73360;DHT22;63092;43.582;19.528;2024-02-21T07:28:08;7.50;99.90
73360;DHT22;63092;43.582;19.528;2024-02-21T07:30:34;7.50;99.90
73360;DHT22;63092;43.582;19.528;2024-02-21T07:33:00;7.50;99.90
73360;DHT22;63092;43.582;19.528;2024-02-21T07:35:26;7.60;99.90
73360;DHT22;63092;43.582;19.528;2024-02-21T07:37:51;7.60;99.90
73360;DHT22;63092;43.582;19.528;2024-02-21T07:40:18;7.60;99.90
73360;DHT22;63092;43.582;19.528;2024-02-21T07:42:44;7.60;99.90
73360;DHT22;63092;43.582;19.528;2024-02-21T07:45:10;7.60;99.90
73360;DHT22;63092;43.582;19.528;2024-02-21T07:47:36;7.70;99.90
73360;DHT22;63092;43.582;19.528;2024-02-21T07:50:05;7.70;99.90
73360;DHT22;63092;43.582;19.528;2024-02-21T07:52:31;7.70;99.90
73360;DHT22;63092;43.582;19.528;2024-02-21T07:54:57;7.80;99.90
73360;DHT22;63092;43.582;19.528;2024-02-21T07:57:23;7.80;99.90
73360;DHT22;63092;43.582;19.528;2024-02-21T07:59:48;7.80;99.90
73360;DHT22;63092;43.582;19.528;2024-02-21T08:02:15;7.70;99.90
73360;DHT22;63092;43.582;19.528;2024-02-21T08:04:41;7.70;99.90
73360;DHT22;63092;43.582;19.528;2024-02-21T08:07:07;7.70;99.90
73360;DHT22;63092;43.582;19.528;2024-02-21T08:09:32;7.70;99.90
73360;DHT22;63092;43.582;19.528;2024-02-21T08:11:58;7.80;99.90
73360;DHT22;63092;43.582;19.528;2024-02-21T08:14:24;7.70;99.90
73360;DHT22;63092;43.582;19.528;2024-02-21T08:16:53;7.70;99.90
73360;DHT22;63092;43.582;19.528;2024-02-21T08:19:20;7.60;99.90
73360;DHT22;63092;43.582;19.528;2024-02-21T08:21:46;7.60;99.90
73360;DHT22;63092;43.582;19.528;2024-02-21T08:24:15;7.60;99.90
73360;DHT22;63092;43.582;19.528;2024-02-21T08:26:44;7.60;99.90
73360;DHT22;63092;43.582;19.528;2024-02-21T08:29:12;7.50;99.90
73360;DHT22;63092;43.582;19.528;2024-02-21T08:31:38;7.50;99.90
73360;DHT22;63092;43.582;19.528;2024-02-21T08:34:04;7.50;99.90
73360;DHT22;63092;43.582;19.528;2024-02-21T08:36:34;7.50;99.90
73360;DHT22;63092;43.582;19.528;2024-02-21T08:39:01;7.50;99.90
73360;DHT22;63092;43.582;19.528;2024-02-21T08:41:30;7.50;99.90
73360;DHT22;63092;43.582;19.528;2024-02-21T08:43:55;7.50;99.90
73360;DHT22;63092;43.582;19.528;2024-02-21T08:46:21;7.50;99.90
73360;DHT22;63092;43.582;19.528;2024-02-21T08:48:47;7.60;99.90
73360;DHT22;63092;43.582;19.528;2024-02-21T08:51:13;7.70;99.90
73360;DHT22;63092;43.582;19.528;2024-02-21T08:53:39;7.80;99.90
73360;DHT22;63092;43.582;19.528;2024-02-21T08:56:05;7.80;99.90
73360;DHT22;63092;43.582;19.528;2024-02-21T08:58:33;7.80;99.90
73360;DHT22;63092;43.582;19.528;2024-02-21T09:00:59;7.80;99.90
73360;DHT22;63092;43.582;19.528;2024-02-21T09:03:24;7.70;99.90
73360;DHT22;63092;43.582;19.528;2024-02-21T09:05:50;7.80;99.90
73360;DHT22;63092;43.582;19.528;2024-02-21T09:08:16;7.80;99.90
73360;DHT22;63092;43.582;19.528;2024-02-21T09:10:42;7.90;99.90
73360;DHT22;63092;43.582;19.528;2024-02-21T09:13:08;8.10;99.90
73360;DHT22;63092;43.582;19.528;2024-02-21T09:15:34;8.20;99.90
73360;DHT22;63092;43.582;19.528;2024-02-21T09:18:00;8.30;99.90
73360;DHT22;63092;43.582;19.528;2024-02-21T09:20:25;8.30;99.90
73360;DHT22;63092;43.582;19.528;2024-02-21T09:22:51;8.40;99.90
73360;DHT22;63092;43.582;19.528;2024-02-21T09:25:18;8.40;99.90
73360;DHT22;63092;43.582;19.528;2024-02-21T09:27:45;8.60;99.90
73360;DHT22;63092;43.582;19.528;2024-02-21T09:30:11;8.60;99.90
73360;DHT22;63092;43.582;19.528;2024-02-21T09:32:38;8.70;99.90
73360;DHT22;63092;43.582;19.528;2024-02-21T09:35:04;8.90;99.90
73360;DHT22;63092;43.582;19.528;2024-02-21T09:37:31;8.90;99.90
73360;DHT22;63092;43.582;19.528;2024-02-21T09:39:57;9.10;99.90
73360;DHT22;63092;43.582;19.528;2024-02-21T09:42:38;9.10;99.90
73360;DHT22;63092;43.582;19.528;2024-02-21T09:45:24;9.20;99.90
73360;DHT22;63092;43.582;19.528;2024-02-21T09:48:28;9.20;99.90
73360;DHT22;63092;43.582;19.528;2024-02-21T09:50:56;9.40;99.90
73360;DHT22;63092;43.582;19.528;2024-02-21T09:53:24;9.60;99.90
73360;DHT22;63092;43.582;19.528;2024-02-21T09:55:50;9.70;99.90
73360;DHT22;63092;43.582;19.528;2024-02-21T09:58:16;9.70;99.90
73360;DHT22;63092;43.582;19.528;2024-02-21T10:00:42;9.70;99.90
73360;DHT22;63092;43.582;19.528;2024-02-21T10:03:08;9.70;99.90
73360;DHT22;63092;43.582;19.528;2024-02-21T10:05:37;9.90;99.90
73360;DHT22;63092;43.582;19.528;2024-02-21T10:08:04;10.00;99.90
73360;DHT22;63092;43.582;19.528;2024-02-21T10:10:43;10.10;99.90
73360;DHT22;63092;43.582;19.528;2024-02-21T10:13:10;10.10;99.90
73360;DHT22;63092;43.582;19.528;2024-02-21T10:15:37;10.10;99.90
73360;DHT22;63092;43.582;19.528;2024-02-21T10:18:03;10.10;99.90
73360;DHT22;63092;43.582;19.528;2024-02-21T10:20:34;10.10;99.90
73360;DHT22;63092;43.582;19.528;2024-02-21T10:23:04;10.20;99.90
73360;DHT22;63092;43.582;19.528;2024-02-21T10:25:36;10.20;99.90
73360;DHT22;63092;43.582;19.528;2024-02-21T10:28:08;10.30;99.90
73360;DHT22;63092;43.582;19.528;2024-02-21T10:30:37;10.40;99.90
73360;DHT22;63092;43.582;19.528;2024-02-21T10:33:03;10.50;99.90
73360;DHT22;63092;43.582;19.528;2024-02-21T10:35:32;10.40;99.90
73360;DHT22;63092;43.582;19.528;2024-02-21T10:37:59;10.50;99.90
73360;DHT22;63092;43.582;19.528;2024-02-21T10:40:29;10.60;99.90
73360;DHT22;63092;43.582;19.528;2024-02-21T10:43:00;10.70;99.90
73360;DHT22;63092;43.582;19.528;2024-02-21T10:45:36;10.70;99.90
73360;DHT22;63092;43.582;19.528;2024-02-21T10:48:12;10.70;99.90
73360;DHT22;63092;43.582;19.528;2024-02-21T10:56:39;10.70;99.90
73360;DHT22;63092;43.582;19.528;2024-02-21T10:59:07;10.80;99.90
73360;DHT22;63092;43.582;19.528;2024-02-21T11:01:33;10.70;99.90
73360;DHT22;63092;43.582;19.528;2024-02-21T11:04:08;10.70;99.90
73360;DHT22;63092;43.582;19.528;2024-02-21T11:06:36;10.70;99.90
73360;DHT22;63092;43.582;19.528;2024-02-21T11:09:11;10.80;99.90
73360;DHT22;63092;43.582;19.528;2024-02-21T11:11:43;10.80;99.90
73360;DHT22;63092;43.582;19.528;2024-02-21T11:14:10;10.90;99.90
73360;DHT22;63092;43.582;19.528;2024-02-21T11:16:40;10.90;99.90
73360;DHT22;63092;43.582;19.528;2024-02-21T11:19:07;11.00;99.90
73360;DHT22;63092;43.582;19.528;2024-02-21T11:21:42;11.10;99.90
73360;DHT22;63092;43.582;19.528;2024-02-21T11:24:08;11.10;99.90
73360;DHT22;63092;43.582;19.528;2024-02-21T11:26:36;11.30;99.90
73360;DHT22;63092;43.582;19.528;2024-02-21T11:29:02;11.40;99.90
73360;DHT22;63092;43.582;19.528;2024-02-21T11:31:39;11.40;99.90
73360;DHT22;63092;43.582;19.528;2024-02-21T11:34:09;11.50;99.90
73360;DHT22;63092;43.582;19.528;2024-02-21T11:36:35;11.60;99.90
73360;DHT22;63092;43.582;19.528;2024-02-21T11:39:04;11.60;99.90
73360;DHT22;63092;43.582;19.528;2024-02-21T11:41:31;11.60;99.90
73360;DHT22;63092;43.582;19.528;2024-02-21T11:43:57;11.70;99.90
73360;DHT22;63092;43.582;19.528;2024-02-21T11:46:23;11.60;99.90
73360;DHT22;63092;43.582;19.528;2024-02-21T11:48:49;11.50;99.80
73360;DHT22;63092;43.582;19.528;2024-02-21T11:51:25;11.40;99.90
73360;DHT22;63092;43.582;19.528;2024-02-21T11:53:52;11.40;99.90
73360;DHT22;63092;43.582;19.528;2024-02-21T11:56:18;11.40;99.90
73360;DHT22;63092;43.582;19.528;2024-02-21T11:58:49;11.30;99.90
73360;DHT22;63092;43.582;19.528;2024-02-21T12:01:15;11.20;99.90
73360;DHT22;63092;43.582;19.528;2024-02-21T12:03:42;11.20;99.90
73360;DHT22;63092;43.582;19.528;2024-02-21T12:06:09;11.20;99.90
73360;DHT22;63092;43.582;19.528;2024-02-21T12:08:44;11.10;99.90
73360;DHT22;63092;43.582;19.528;2024-02-21T12:11:23;11.20;99.90
73360;DHT22;63092;43.582;19.528;2024-02-21T12:14:01;11.20;99.90
73360;DHT22;63092;43.582;19.528;2024-02-21T12:16:29;11.30;99.90
73360;DHT22;63092;43.582;19.528;2024-02-21T12:19:00;11.30;99.90
73360;DHT22;63092;43.582;19.528;2024-02-21T12:21:29;11.40;99.90
73360;DHT22;63092;43.582;19.528;2024-02-21T12:23:55;11.40;99.90
73360;DHT22;63092;43.582;19.528;2024-02-21T12:26:22;11.50;99.90
73360;DHT22;63092;43.582;19.528;2024-02-21T12:28:48;11.50;99.90
73360;DHT22;63092;43.582;19.528;2024-02-21T12:31:14;11.50;99.90
73360;DHT22;63092;43.582;19.528;2024-02-21T12:33:42;11.50;99.70
73360;DHT22;63092;43.582;19.528;2024-02-21T12:36:08;11.60;99.10
73360;DHT22;63092;43.582;19.528;2024-02-21T12:38:35;11.60;98.50
73360;DHT22;63092;43.582;19.528;2024-02-21T12:41:01;11.60;98.30
73360;DHT22;63092;43.582;19.528;2024-02-21T12:43:27;11.60;97.30
73360;DHT22;63092;43.582;19.528;2024-02-21T12:45:52;11.60;96.60
73360;DHT22;63092;43.582;19.528;2024-02-21T12:48:18;11.50;96.30
73360;DHT22;63092;43.582;19.528;2024-02-21T12:50:53;11.40;95.90
73360;DHT22;63092;43.582;19.528;2024-02-21T12:53:21;11.40;95.70
73360;DHT22;63092;43.582;19.528;2024-02-21T12:55:48;11.50;95.20
73360;DHT22;63092;43.582;19.528;2024-02-21T12:58:14;11.50;95.20
73360;DHT22;63092;43.582;19.528;2024-02-21T13:00:41;11.60;95.30
73360;DHT22;63092;43.582;19.528;2024-02-21T13:03:07;11.70;96.10
73360;DHT22;63092;43.582;19.528;2024-02-21T13:05:33;11.80;96.70
73360;DHT22;63092;43.582;19.528;2024-02-21T13:07:59;11.90;96.20
73360;DHT22;63092;43.582;19.528;2024-02-21T13:10:25;12.00;96.10
73360;DHT22;63092;43.582;19.528;2024-02-21T13:12:51;12.00;96.70
73360;DHT22;63092;43.582;19.528;2024-02-21T13:15:16;12.00;96.30
73360;DHT22;63092;43.582;19.528;2024-02-21T13:17:46;12.00;96.10
73360;DHT22;63092;43.582;19.528;2024-02-21T13:20:13;12.00;96.30
73360;DHT22;63092;43.582;19.528;2024-02-21T13:22:39;12.00;95.80
73360;DHT22;63092;43.582;19.528;2024-02-21T13:25:05;12.10;95.50
73360;DHT22;63092;43.582;19.528;2024-02-21T13:27:33;12.10;95.50
73360;DHT22;63092;43.582;19.528;2024-02-21T13:29:59;12.00;95.60
73360;DHT22;63092;43.582;19.528;2024-02-21T13:32:28;12.00;95.50
73360;DHT22;63092;43.582;19.528;2024-02-21T13:34:54;11.90;94.60
73360;DHT22;63092;43.582;19.528;2024-02-21T13:37:19;12.00;94.90
73360;DHT22;63092;43.582;19.528;2024-02-21T13:39:45;12.00;95.20
73360;DHT22;63092;43.582;19.528;2024-02-21T13:42:12;12.00;95.00
73360;DHT22;63092;43.582;19.528;2024-02-21T13:44:38;12.00;94.50
73360;DHT22;63092;43.582;19.528;2024-02-21T13:47:04;12.00;94.20
73360;DHT22;63092;43.582;19.528;2024-02-21T13:49:30;12.00;94.80
73360;DHT22;63092;43.582;19.528;2024-02-21T13:51:56;12.00;94.70
73360;DHT22;63092;43.582;19.528;2024-02-21T13:54:22;12.00;94.30
73360;DHT22;63092;43.582;19.528;2024-02-21T13:56:48;12.10;94.40
73360;DHT22;63092;43.582;19.528;2024-02-21T13:59:13;12.10;95.00
73360;DHT22;63092;43.582;19.528;2024-02-21T14:01:39;12.10;94.70
73360;DHT22;63092;43.582;19.528;2024-02-21T14:04:05;12.10;94.30
73360;DHT22;63092;43.582;19.528;2024-02-21T14:06:30;12.10;94.50
73360;DHT22;63092;43.582;19.528;2024-02-21T14:08:56;12.20;94.40
73360;DHT22;63092;43.582;19.528;2024-02-21T14:11:23;12.20;93.90
73360;DHT22;63092;43.582;19.528;2024-02-21T14:13:49;12.10;93.70
73360;DHT22;63092;43.582;19.528;2024-02-21T14:16:15;12.00;94.20
73360;DHT22;63092;43.582;19.528;2024-02-21T14:18:41;12.10;94.50
73360;DHT22;63092;43.582;19.528;2024-02-21T14:21:08;12.00;94.50
73360;DHT22;63092;43.582;19.528;2024-02-21T14:23:39;12.10;95.10
73360;DHT22;63092;43.582;19.528;2024-02-21T14:26:05;12.00;94.70
73360;DHT22;63092;43.582;19.528;2024-02-21T14:28:32;12.00;95.10
73360;DHT22;63092;43.582;19.528;2024-02-21T14:31:00;11.90;94.80
73360;DHT22;63092;43.582;19.528;2024-02-21T14:33:27;11.90;95.10
73360;DHT22;63092;43.582;19.528;2024-02-21T14:35:52;11.90;95.50
73360;DHT22;63092;43.582;19.528;2024-02-21T14:38:19;11.90;95.30
73360;DHT22;63092;43.582;19.528;2024-02-21T14:40:45;11.90;95.20
73360;DHT22;63092;43.582;19.528;2024-02-21T14:43:12;11.90;95.10
73360;DHT22;63092;43.582;19.528;2024-02-21T14:45:38;11.90;95.90
73360;DHT22;63092;43.582;19.528;2024-02-21T14:48:04;11.90;95.70
73360;DHT22;63092;43.582;19.528;2024-02-21T14:50:30;11.90;95.50
73360;DHT22;63092;43.582;19.528;2024-02-21T14:52:56;11.90;94.90
73360;DHT22;63092;43.582;19.528;2024-02-21T14:55:22;11.80;95.00
73360;DHT22;63092;43.582;19.528;2024-02-21T14:57:48;11.70;94.90
73360;DHT22;63092;43.582;19.528;2024-02-21T15:00:14;11.70;94.80
73360;DHT22;63092;43.582;19.528;2024-02-21T15:02:40;11.70;94.80
73360;DHT22;63092;43.582;19.528;2024-02-21T15:05:06;11.70;95.00
73360;DHT22;63092;43.582;19.528;2024-02-21T15:07:32;11.80;95.20
73360;DHT22;63092;43.582;19.528;2024-02-21T15:09:58;11.80;95.60
73360;DHT22;63092;43.582;19.528;2024-02-21T15:12:24;11.90;96.00
73360;DHT22;63092;43.582;19.528;2024-02-21T15:14:50;12.00;95.60
73360;DHT22;63092;43.582;19.528;2024-02-21T15:17:17;12.00;95.70
73360;DHT22;63092;43.582;19.528;2024-02-21T15:19:43;12.00;95.10
73360;DHT22;63092;43.582;19.528;2024-02-21T15:22:12;12.00;95.00
73360;DHT22;63092;43.582;19.528;2024-02-21T15:24:41;12.00;95.00
73360;DHT22;63092;43.582;19.528;2024-02-21T15:27:07;12.00;94.90
73360;DHT22;63092;43.582;19.528;2024-02-21T15:29:35;12.00;95.50
73360;DHT22;63092;43.582;19.528;2024-02-21T15:32:04;12.00;95.60